createdAt,value
2019-01-21T00:00:37.760Z,0.98
2019-01-21T00:01:41.393Z,0.99
2019-01-21T00:02:44.964Z,0.99
2019-01-21T00:03:48.495Z,0.99
2019-01-21T00:04:52.076Z,1.00
2019-01-21T00:05:55.752Z,0.97
2019-01-21T00:06:59.330Z,0.94
2019-01-21T00:08:02.849Z,0.92
2019-01-21T00:09:07.734Z,0.91
2019-01-21T00:10:11.331Z,0.89
2019-01-21T00:11:14.856Z,0.88
2019-01-21T00:12:18.271Z,0.89
2019-01-21T00:13:21.791Z,0.84
2019-01-21T00:14:25.292Z,0.80
2019-01-21T00:15:28.896Z,0.82
2019-01-21T00:16:32.465Z,0.88
2019-01-21T00:17:35.911Z,0.91
2019-01-21T00:18:39.525Z,0.98
2019-01-21T00:19:43.346Z,0.99
2019-01-21T00:20:46.849Z,0.99
2019-01-21T00:21:50.277Z,1.00
2019-01-21T00:22:53.811Z,0.98
2019-01-21T00:23:57.292Z,0.95
2019-01-21T00:25:00.835Z,0.98
2019-01-21T00:26:04.535Z,0.97
2019-01-21T00:27:08.030Z,0.97
2019-01-21T00:28:11.530Z,0.97
2019-01-21T00:29:15.029Z,0.96
2019-01-21T00:30:18.688Z,0.94
2019-01-21T00:31:22.213Z,0.96
2019-01-21T00:32:25.653Z,0.95
2019-01-21T00:33:29.089Z,0.96
2019-01-21T00:34:32.594Z,0.96
2019-01-21T00:35:36.055Z,0.93
2019-01-21T00:36:39.622Z,0.94
2019-01-21T00:37:43.058Z,0.94
2019-01-21T00:38:46.564Z,0.95
2019-01-21T00:39:50.020Z,0.96
2019-01-21T00:40:53.809Z,0.94
2019-01-21T00:41:57.374Z,0.89
2019-01-21T00:43:00.902Z,0.88
2019-01-21T00:44:04.490Z,0.87
2019-01-21T00:45:08.765Z,0.90
2019-01-21T00:46:12.273Z,0.93
2019-01-21T00:47:15.695Z,0.91
2019-01-21T00:48:19.148Z,0.89
2019-01-21T00:49:22.717Z,0.84
2019-01-21T00:50:26.412Z,0.84
2019-01-21T00:51:29.838Z,0.82
2019-01-21T00:52:33.270Z,0.80
2019-01-21T00:53:36.768Z,0.83
2019-01-21T00:54:40.200Z,0.83
2019-01-21T00:55:43.694Z,0.84
2019-01-21T00:56:47.259Z,0.89
2019-01-21T00:57:50.698Z,0.91
2019-01-21T00:58:54.119Z,0.93
2019-01-21T00:59:57.701Z,0.93
2019-01-21T01:01:01.245Z,0.91
2019-01-21T01:02:04.815Z,0.87
2019-01-21T01:03:08.318Z,0.89
2019-01-21T01:04:11.823Z,0.91
2019-01-21T01:05:15.523Z,0.86
2019-01-21T01:06:19.009Z,0.85
2019-01-21T01:07:22.542Z,0.88
2019-01-21T01:08:26.052Z,0.86
2019-01-21T01:09:29.563Z,0.85
2019-01-21T01:10:32.996Z,0.89
2019-01-21T01:11:36.489Z,0.89
2019-01-21T01:12:40.001Z,0.84
2019-01-21T01:13:43.498Z,0.85
2019-01-21T01:14:46.941Z,0.85
2019-01-21T01:15:50.458Z,0.81
2019-01-21T01:16:53.902Z,0.79
2019-01-21T01:17:57.341Z,0.84
2019-01-21T01:19:01.015Z,0.84
2019-01-21T01:20:12.910Z,0.85
2019-01-21T01:21:16.369Z,0.80
2019-01-21T01:22:19.806Z,0.79
2019-01-21T01:23:23.239Z,0.82
2019-01-21T01:24:26.680Z,0.85
2019-01-21T01:25:30.122Z,0.86
2019-01-21T01:26:33.556Z,0.86
2019-01-21T01:27:37.216Z,0.88
2019-01-21T01:28:40.713Z,0.89
2019-01-21T01:29:44.145Z,0.86
2019-01-21T01:30:47.743Z,0.88
2019-01-21T01:31:51.245Z,0.88
2019-01-21T01:32:54.752Z,0.88
2019-01-21T01:33:58.261Z,0.89
2019-01-21T01:35:01.696Z,0.88
2019-01-21T01:36:05.218Z,0.87
2019-01-21T01:37:08.713Z,0.86
2019-01-21T01:38:12.143Z,0.88
2019-01-21T01:39:15.570Z,0.85
2019-01-21T01:40:19.367Z,0.87
2019-01-21T01:41:22.951Z,0.87
2019-01-21T01:42:26.450Z,0.87
2019-01-21T01:43:29.961Z,0.90
2019-01-21T01:44:33.389Z,0.90
2019-01-21T01:45:36.956Z,0.88
2019-01-21T01:46:40.461Z,0.91
2019-01-21T01:47:44.887Z,0.91
2019-01-21T01:48:48.666Z,0.86
2019-01-21T01:49:52.336Z,0.85
2019-01-21T01:50:56.171Z,0.82
2019-01-21T01:51:59.681Z,0.84
2019-01-21T01:53:03.254Z,0.88
2019-01-21T01:54:06.827Z,0.89
2019-01-21T01:55:11.607Z,0.89
2019-01-21T01:56:15.123Z,0.88
2019-01-21T01:57:18.618Z,0.90
2019-01-21T01:58:22.105Z,0.92
2019-01-21T01:59:25.617Z,0.92
2019-01-21T02:00:29.486Z,0.91
2019-01-21T02:01:33.145Z,0.92
2019-01-21T02:02:36.712Z,0.93
2019-01-21T02:03:40.144Z,0.86
2019-01-21T02:04:43.576Z,0.87
2019-01-21T02:05:47.140Z,0.86
2019-01-21T02:06:51.118Z,0.85
2019-01-21T02:07:54.962Z,0.83
2019-01-21T02:08:58.456Z,0.84
2019-01-21T02:10:01.958Z,0.86
2019-01-21T02:11:05.485Z,0.85
2019-01-21T02:12:08.982Z,0.87
2019-01-21T02:13:12.554Z,0.88
2019-01-21T02:14:16.227Z,0.86
2019-01-21T02:15:19.725Z,0.88
2019-01-21T02:16:23.173Z,0.87
2019-01-21T02:17:26.667Z,0.86
2019-01-21T02:18:30.094Z,0.83
2019-01-21T02:19:35.368Z,0.84
2019-01-21T02:20:39.542Z,0.86
2019-01-21T02:21:43.528Z,0.87
2019-01-21T02:22:49.442Z,0.87
2019-01-21T02:23:56.308Z,0.87
2019-01-21T02:25:01.646Z,0.89
2019-01-21T02:26:07.339Z,0.85
2019-01-21T02:27:14.350Z,0.84
2019-01-21T02:28:26.623Z,0.87
2019-01-21T02:29:39.336Z,0.86
2019-01-21T02:31:03.941Z,0.88
2019-01-21T02:32:28.281Z,0.85
2019-01-21T02:33:51.031Z,0.83
2019-01-21T02:35:15.417Z,0.83
2019-01-21T02:36:39.798Z,0.81
2019-01-21T02:37:58.180Z,0.78
2019-01-21T02:39:07.338Z,0.84
2019-01-21T02:40:16.611Z,0.82
2019-01-21T02:41:23.095Z,0.85
2019-01-21T02:42:47.349Z,0.86
2019-01-21T02:43:56.483Z,0.83
2019-01-21T02:45:29.802Z,0.84
2019-01-21T02:46:36.282Z,0.80
2019-01-21T02:47:45.245Z,0.74
2019-01-21T02:49:00.507Z,0.76
2019-01-21T02:50:24.936Z,0.74
2019-01-21T02:51:59.736Z,0.74
2019-01-21T02:53:41.680Z,0.74
2019-01-21T02:54:59.389Z,0.79
2019-01-21T02:56:22.183Z,0.79
2019-01-21T02:57:28.702Z,0.88
2019-01-21T02:59:07.843Z,0.90
2019-01-21T03:00:26.307Z,0.87
2019-01-21T03:01:57.863Z,0.86
2019-01-21T03:03:21.824Z,0.85
2019-01-21T03:04:56.678Z,0.79
2019-01-21T03:06:08.921Z,0.83
2019-01-21T03:07:38.492Z,0.82
2019-01-21T03:09:04.522Z,0.76
2019-01-21T03:10:34.773Z,0.80
2019-01-21T03:11:47.321Z,0.80
2019-01-21T03:13:02.007Z,0.76
2019-01-21T03:14:11.081Z,0.79
2019-01-21T03:15:33.591Z,0.83
2019-01-21T03:16:40.070Z,0.81
2019-01-21T03:17:52.043Z,0.84
2019-01-21T03:19:01.249Z,0.84
2019-01-21T03:20:10.177Z,0.80
2019-01-21T03:21:31.334Z,0.76
2019-01-21T03:22:49.701Z,0.75
2019-01-21T03:24:28.763Z,0.82
2019-01-21T03:26:04.927Z,0.82
2019-01-21T03:27:27.766Z,0.83
2019-01-21T03:28:40.110Z,0.83
2019-01-21T03:30:10.281Z,0.84
2019-01-21T03:31:41.965Z,0.79
2019-01-21T03:33:10.705Z,0.79
2019-01-21T03:34:17.211Z,0.80
2019-01-21T03:35:41.028Z,0.76
2019-01-21T03:37:12.735Z,0.77
2019-01-21T03:38:28.104Z,0.79
2019-01-21T03:39:59.703Z,0.78
2019-01-21T03:41:06.203Z,0.75
2019-01-21T03:42:12.691Z,0.71
2019-01-21T03:43:24.847Z,0.71
2019-01-21T03:45:04.120Z,0.71
2019-01-21T03:46:31.299Z,0.72
2019-01-21T03:47:37.843Z,0.79
2019-01-21T03:48:42.604Z,0.79
2019-01-21T03:50:05.216Z,0.76
2019-01-21T03:51:40.103Z,0.73
2019-01-21T03:52:49.499Z,0.70
2019-01-21T03:53:55.987Z,0.67
2019-01-21T03:55:00.959Z,0.70
2019-01-21T03:56:06.941Z,0.71
2019-01-21T03:57:13.274Z,0.70
2019-01-21T03:58:34.361Z,0.68
2019-01-21T04:00:01.661Z,0.66
2019-01-21T04:01:13.904Z,0.70
2019-01-21T04:02:36.650Z,0.75
2019-01-21T04:03:54.746Z,0.74
2019-01-21T04:05:03.813Z,0.78
2019-01-21T04:06:10.331Z,0.76
2019-01-21T04:07:19.413Z,0.74
2019-01-21T04:08:46.576Z,0.78
2019-01-21T04:10:04.783Z,0.76
2019-01-21T04:11:19.898Z,0.83
2019-01-21T04:12:32.087Z,0.84
2019-01-21T04:13:47.642Z,0.80
2019-01-21T04:15:21.443Z,0.78
2019-01-21T04:16:30.923Z,0.76
2019-01-21T04:17:48.813Z,0.83
2019-01-21T04:19:04.216Z,0.80
2019-01-21T04:20:10.703Z,0.78
2019-01-21T04:21:20.144Z,0.80
2019-01-21T04:22:32.164Z,0.79
2019-01-21T04:23:44.451Z,0.79
2019-01-21T04:24:59.602Z,0.74
2019-01-21T04:26:11.612Z,0.76
2019-01-21T04:27:29.684Z,0.81
2019-01-21T04:28:38.875Z,0.87
2019-01-21T04:30:16.697Z,0.85
2019-01-21T04:31:23.172Z,0.89
2019-01-21T04:32:35.459Z,0.92
2019-01-21T04:33:47.751Z,0.89
2019-01-21T04:34:59.911Z,0.84
2019-01-21T04:36:18.186Z,0.79
2019-01-21T04:37:27.412Z,0.73
2019-01-21T04:38:36.579Z,0.73
2019-01-21T04:39:48.828Z,0.72
2019-01-21T04:41:03.947Z,0.73
2019-01-21T04:42:26.763Z,0.79
2019-01-21T04:43:42.028Z,0.84
2019-01-21T04:44:57.210Z,0.84
2019-01-21T04:46:03.699Z,0.90
2019-01-21T04:47:15.633Z,0.93
2019-01-21T04:48:33.108Z,0.93
2019-01-21T04:49:39.235Z,0.95
2019-01-21T04:51:10.908Z,0.93
2019-01-21T04:52:29.575Z,0.94
2019-01-21T04:54:10.563Z,0.96
2019-01-21T04:55:28.812Z,0.94
2019-01-21T04:56:35.299Z,0.91
2019-01-21T04:57:50.789Z,0.93
2019-01-21T04:59:06.021Z,0.93
2019-01-21T05:00:21.182Z,0.90
2019-01-21T05:01:48.116Z,0.87
2019-01-21T05:03:15.336Z,0.85
2019-01-21T05:04:36.522Z,0.87
2019-01-21T05:05:57.800Z,0.87
2019-01-21T05:07:21.963Z,0.88
2019-01-21T05:08:33.995Z,0.84
2019-01-21T05:10:11.907Z,0.88
2019-01-21T05:11:23.903Z,0.91
2019-01-21T05:12:33.173Z,0.94
2019-01-21T05:13:51.538Z,0.91
2019-01-21T05:15:03.818Z,0.83
2019-01-21T05:16:22.274Z,0.82
2019-01-21T05:17:37.764Z,0.85
2019-01-21T05:18:52.939Z,0.88
2019-01-21T05:20:26.042Z,0.82
2019-01-21T05:21:41.076Z,0.83
2019-01-21T05:23:02.315Z,0.84
2019-01-21T05:24:14.639Z,0.86
2019-01-21T05:25:32.769Z,0.85
2019-01-21T05:26:58.714Z,0.88
2019-01-21T05:28:25.861Z,0.86
2019-01-21T05:29:50.124Z,0.85
2019-01-21T05:30:56.899Z,0.83
2019-01-21T05:32:15.327Z,0.86
2019-01-21T05:33:24.611Z,0.83
2019-01-21T05:34:36.933Z,0.83
2019-01-21T05:35:58.404Z,0.83
2019-01-21T05:37:10.701Z,0.83
2019-01-21T05:38:19.963Z,0.85
2019-01-21T05:39:44.391Z,0.89
2019-01-21T05:41:08.988Z,0.82
2019-01-21T05:42:42.563Z,0.82
2019-01-21T05:44:05.503Z,0.91
2019-01-21T05:45:23.514Z,0.82
2019-01-21T05:46:51.996Z,0.83
2019-01-21T05:48:19.281Z,0.83
2019-01-21T05:49:43.742Z,0.85
2019-01-21T05:51:05.187Z,0.90
2019-01-21T05:52:36.942Z,0.92
2019-01-21T05:53:59.592Z,0.91
2019-01-21T05:55:15.280Z,0.92
2019-01-21T05:56:24.627Z,0.92
2019-01-21T05:57:39.847Z,0.90
2019-01-21T05:58:46.329Z,0.85
2019-01-21T05:59:55.599Z,0.82
2019-01-21T06:01:08.345Z,0.84
2019-01-21T06:02:24.002Z,0.89
2019-01-21T06:03:36.186Z,0.86
2019-01-21T06:04:45.455Z,0.90
2019-01-21T06:06:06.963Z,0.94
2019-01-21T06:07:31.381Z,0.89
2019-01-21T06:08:40.626Z,0.86
2019-01-21T06:09:49.833Z,0.81
2019-01-21T06:11:14.071Z,0.78
2019-01-21T06:12:23.224Z,0.77
2019-01-21T06:13:44.271Z,0.80
2019-01-21T06:15:12.902Z,0.78
2019-01-21T06:16:35.746Z,0.77
2019-01-21T06:17:42.246Z,0.75
2019-01-21T06:18:57.097Z,0.75
2019-01-21T06:20:05.436Z,0.79
2019-01-21T06:21:17.755Z,0.79
2019-01-21T06:22:24.250Z,0.69
2019-01-21T06:23:36.704Z,0.67
2019-01-21T06:25:04.107Z,0.69
2019-01-21T06:26:16.745Z,0.66
2019-01-21T06:27:49.957Z,0.68
2019-01-21T06:29:11.337Z,0.69
2019-01-21T06:30:41.409Z,0.74
2019-01-21T06:32:04.434Z,0.72
2019-01-21T06:33:22.641Z,0.74
2019-01-21T06:34:47.040Z,0.78
2019-01-21T06:36:12.777Z,0.81
2019-01-21T06:37:24.876Z,0.82
2019-01-21T06:38:47.743Z,0.86
2019-01-21T06:40:10.483Z,0.84
2019-01-21T06:41:33.036Z,0.87
2019-01-21T06:43:10.914Z,0.93
2019-01-21T06:44:32.102Z,0.91
2019-01-21T06:45:57.837Z,0.92
2019-01-21T06:47:38.333Z,0.91
2019-01-21T06:49:05.449Z,0.95
2019-01-21T06:50:43.333Z,0.95
2019-01-21T06:52:13.084Z,0.87
2019-01-21T06:53:25.647Z,0.84
2019-01-21T06:54:40.815Z,0.83
2019-01-21T06:56:03.898Z,0.83
2019-01-21T06:57:12.909Z,0.81
2019-01-21T06:58:37.284Z,0.82
2019-01-21T06:59:52.550Z,0.81
2019-01-21T07:01:24.275Z,0.75
2019-01-21T07:02:48.349Z,0.85
2019-01-21T07:04:18.798Z,0.88
2019-01-21T07:05:39.936Z,0.90
2019-01-21T07:06:58.307Z,0.90
2019-01-21T07:08:10.365Z,0.88
2019-01-21T07:09:22.177Z,0.88
2019-01-21T07:10:37.253Z,0.86
2019-01-21T07:11:58.390Z,0.89
2019-01-21T07:13:10.820Z,0.91
2019-01-21T07:14:33.441Z,0.93
2019-01-21T07:16:12.321Z,0.91
2019-01-21T07:17:19.298Z,0.90
2019-01-21T07:18:31.675Z,0.93
2019-01-21T07:19:49.968Z,0.94
2019-01-21T07:21:08.334Z,0.90
2019-01-21T07:22:26.512Z,0.91
2019-01-21T07:23:51.669Z,0.91
2019-01-21T07:25:18.397Z,0.93
2019-01-21T07:26:30.599Z,0.95
2019-01-21T07:27:39.837Z,0.93
2019-01-21T07:28:48.835Z,0.92
2019-01-21T07:30:16.120Z,0.91
2019-01-21T07:31:22.645Z,0.91
2019-01-21T07:32:31.990Z,0.86
2019-01-21T07:33:47.105Z,0.82
2019-01-21T07:35:05.158Z,0.84
2019-01-21T07:36:26.532Z,0.86
2019-01-21T07:37:35.561Z,0.89
2019-01-21T07:38:53.776Z,0.92
2019-01-21T07:40:11.909Z,0.90
2019-01-21T07:41:23.921Z,0.96
2019-01-21T07:42:48.109Z,0.92
2019-01-21T07:43:57.133Z,0.88
2019-01-21T07:45:12.475Z,0.91
2019-01-21T07:46:30.909Z,0.92
2019-01-21T07:47:40.252Z,0.93
2019-01-21T07:49:04.477Z,0.98
2019-01-21T07:50:13.889Z,0.93
2019-01-21T07:51:39.656Z,0.91
2019-01-21T07:52:48.978Z,0.89
2019-01-21T07:54:19.325Z,0.91
2019-01-21T07:55:25.798Z,0.89
2019-01-21T07:56:43.969Z,0.93
2019-01-21T07:58:09.622Z,0.91
2019-01-21T07:59:28.184Z,0.95
2019-01-21T08:00:46.556Z,0.96
2019-01-21T08:02:04.858Z,0.97
2019-01-21T08:03:34.856Z,0.99
2019-01-21T08:04:41.339Z,0.92
2019-01-21T08:06:02.738Z,0.89
2019-01-21T08:07:15.144Z,0.86
2019-01-21T08:08:30.323Z,0.89
2019-01-21T08:09:48.771Z,0.86
2019-01-21T08:11:19.183Z,0.84
2019-01-21T08:12:28.203Z,0.86
2019-01-21T08:13:46.295Z,0.89
2019-01-21T08:14:52.752Z,0.91
2019-01-21T08:16:10.958Z,0.92
2019-01-21T08:17:20.319Z,0.89
2019-01-21T08:18:29.381Z,0.88
2019-01-21T08:19:35.899Z,0.89
2019-01-21T08:20:42.366Z,0.91
2019-01-21T08:22:15.824Z,0.92
2019-01-21T08:23:47.419Z,0.90
2019-01-21T08:25:17.273Z,0.92
2019-01-21T08:26:29.284Z,0.92
2019-01-21T08:27:38.288Z,0.90
2019-01-21T08:28:53.290Z,0.86
2019-01-21T08:30:15.819Z,0.80
2019-01-21T08:31:22.502Z,0.82
2019-01-21T08:32:49.730Z,0.91
2019-01-21T08:34:15.188Z,0.92
2019-01-21T08:35:21.677Z,0.91
2019-01-21T08:36:36.504Z,0.90
2019-01-21T08:37:51.743Z,0.89
2019-01-21T08:39:14.522Z,0.91
2019-01-21T08:40:26.331Z,0.92
2019-01-21T08:41:35.306Z,0.91
2019-01-21T08:42:59.501Z,0.86
2019-01-21T08:44:06.017Z,0.87
2019-01-21T08:45:12.502Z,0.91
2019-01-21T08:46:21.647Z,0.96
2019-01-21T08:47:50.337Z,0.94
2019-01-21T08:49:30.654Z,0.93
2019-01-21T08:50:49.720Z,0.95
2019-01-21T08:52:01.773Z,0.95
2019-01-21T08:53:25.918Z,0.96
2019-01-21T08:54:34.920Z,0.95
2019-01-21T08:55:58.906Z,0.94
2019-01-21T08:57:11.119Z,0.95
2019-01-21T08:58:38.157Z,0.95
2019-01-21T08:59:53.224Z,0.96
2019-01-21T09:01:20.212Z,0.96
2019-01-21T09:02:38.532Z,0.91
2019-01-21T09:04:02.805Z,0.88
2019-01-21T09:05:17.753Z,0.86
2019-01-21T09:06:29.783Z,0.87
2019-01-21T09:08:10.573Z,0.89
2019-01-21T09:09:22.990Z,0.92
2019-01-21T09:10:35.185Z,0.93
2019-01-21T09:12:06.888Z,0.96
2019-01-21T09:13:37.334Z,0.95
2019-01-21T09:15:15.002Z,0.99
2019-01-21T09:16:26.944Z,1.03
2019-01-21T09:17:38.947Z,1.02
2019-01-21T09:19:02.869Z,1.03
2019-01-21T09:20:28.185Z,1.00
2019-01-21T09:21:37.344Z,0.98
2019-01-21T09:22:49.763Z,0.97
2019-01-21T09:24:18.599Z,1.03
2019-01-21T09:25:33.770Z,1.03
2019-01-21T09:26:48.965Z,1.04
2019-01-21T09:28:06.918Z,1.04
2019-01-21T09:29:16.088Z,1.03
2019-01-21T09:30:34.375Z,1.05
2019-01-21T09:31:52.763Z,0.71
2019-01-21T09:33:05.023Z,1.07
2019-01-21T09:34:20.116Z,1.05
2019-01-21T09:35:45.512Z,1.07
2019-01-21T09:37:03.770Z,1.07
2019-01-21T09:38:26.373Z,1.07
2019-01-21T09:39:53.537Z,1.07
2019-01-21T09:41:02.479Z,1.09
2019-01-21T09:42:23.613Z,1.08
2019-01-21T09:43:35.939Z,1.08
2019-01-21T09:44:42.433Z,1.11
2019-01-21T09:45:57.481Z,1.11
2019-01-21T09:46:59.766Z,1.12
2019-01-21T09:48:02.077Z,1.12
2019-01-21T09:49:04.370Z,1.14
2019-01-21T09:50:07.890Z,1.15
2019-01-21T09:51:11.767Z,1.12
2019-01-21T09:52:17.556Z,1.09
2019-01-21T09:53:21.134Z,1.08
2019-01-21T09:54:24.813Z,1.08
2019-01-21T09:55:28.815Z,1.10
2019-01-21T09:56:32.396Z,1.13
2019-01-21T09:57:38.084Z,1.09
2019-01-21T09:58:44.364Z,1.10
2019-01-21T09:59:50.616Z,1.10
2019-01-21T10:00:54.306Z,1.11
2019-01-21T10:01:58.180Z,1.14
2019-01-21T10:03:03.853Z,1.15
2019-01-21T10:04:07.728Z,1.15
2019-01-21T10:05:11.425Z,1.13
2019-01-21T10:06:17.325Z,1.12
2019-01-21T10:07:31.845Z,1.14
2019-01-21T10:08:40.870Z,1.18
2019-01-21T10:09:56.125Z,1.16
2019-01-21T10:11:23.374Z,1.16
2019-01-21T10:12:41.035Z,1.16
2019-01-21T10:13:56.331Z,1.12
2019-01-21T10:15:05.497Z,1.14
2019-01-21T10:16:29.891Z,1.18
2019-01-21T10:17:41.807Z,1.21
2019-01-21T10:18:50.954Z,1.25
2019-01-21T10:20:19.614Z,1.23
2019-01-21T10:21:31.589Z,1.18
2019-01-21T10:22:55.753Z,1.18
2019-01-21T10:24:02.233Z,1.20
2019-01-21T10:25:23.186Z,1.19
2019-01-21T10:26:58.003Z,1.19
2019-01-21T10:28:16.127Z,1.17
2019-01-21T10:29:25.234Z,1.23
2019-01-21T10:30:34.591Z,1.23
2019-01-21T10:31:52.662Z,1.24
2019-01-21T10:33:10.744Z,1.28
2019-01-21T10:34:28.925Z,1.28
2019-01-21T10:35:43.842Z,1.26
2019-01-21T10:37:02.108Z,1.24
2019-01-21T10:38:29.969Z,1.27
2019-01-21T10:39:48.348Z,1.27
2019-01-21T10:40:57.799Z,1.31
2019-01-21T10:42:06.838Z,1.27
2019-01-21T10:43:21.534Z,1.32
2019-01-21T10:44:30.432Z,1.36
2019-01-21T10:45:55.784Z,1.35
2019-01-21T10:47:08.145Z,1.36
2019-01-21T10:48:17.373Z,1.40
2019-01-21T10:49:29.353Z,1.39
2019-01-21T10:50:47.528Z,1.29
2019-01-21T10:52:11.805Z,1.13
2019-01-21T10:53:36.176Z,1.00
2019-01-21T10:54:51.126Z,1.07
2019-01-21T10:56:12.329Z,1.15
2019-01-21T10:57:18.847Z,1.23
2019-01-21T10:58:41.777Z,1.28
2019-01-21T10:59:56.845Z,1.33
2019-01-21T11:01:27.205Z,1.43
2019-01-21T11:02:36.835Z,1.46
2019-01-21T11:03:45.850Z,1.49
2019-01-21T11:04:58.254Z,1.46
2019-01-21T11:06:07.501Z,1.43
2019-01-21T11:07:40.944Z,1.46
2019-01-21T11:08:53.267Z,1.36
2019-01-21T11:10:17.493Z,1.24
2019-01-21T11:11:29.718Z,1.19
2019-01-21T11:12:42.210Z,1.17
2019-01-21T11:14:04.987Z,1.16
2019-01-21T11:15:11.534Z,1.23
2019-01-21T11:16:20.466Z,1.30
2019-01-21T11:17:43.391Z,1.33
2019-01-21T11:18:49.879Z,1.36
2019-01-21T11:20:24.909Z,1.38
2019-01-21T11:21:37.296Z,1.37
2019-01-21T11:22:43.807Z,1.34
2019-01-21T11:23:56.220Z,1.33
2019-01-21T11:25:08.731Z,1.31
2019-01-21T11:26:29.877Z,1.25
2019-01-21T11:27:48.265Z,1.25
2019-01-21T11:29:12.467Z,1.24
2019-01-21T11:30:37.050Z,1.21
2019-01-21T11:32:10.723Z,1.30
2019-01-21T11:33:29.257Z,1.35
2019-01-21T11:34:41.655Z,1.40
2019-01-21T11:36:04.407Z,1.41
2019-01-21T11:37:28.687Z,1.34
2019-01-21T11:38:40.854Z,1.26
2019-01-21T11:39:56.332Z,1.24
2019-01-21T11:41:08.845Z,1.22
2019-01-21T11:42:18.124Z,1.27
2019-01-21T11:43:33.796Z,1.29
2019-01-21T11:44:42.977Z,1.31
2019-01-21T11:45:52.310Z,1.24
2019-01-21T11:47:01.729Z,1.21
2019-01-21T11:48:14.146Z,1.20
2019-01-21T11:49:41.358Z,1.21
2019-01-21T11:51:19.149Z,1.25
2019-01-21T11:52:34.197Z,1.38
2019-01-21T11:53:51.990Z,1.47
2019-01-21T11:55:12.940Z,1.48
2019-01-21T11:56:24.977Z,1.48
2019-01-21T11:57:34.436Z,1.51
2019-01-21T11:58:46.881Z,1.49
2019-01-21T12:00:11.051Z,1.49
2019-01-21T12:01:29.357Z,1.51
2019-01-21T12:02:53.534Z,1.58
2019-01-21T12:04:00.067Z,1.58
2019-01-21T12:05:18.181Z,1.59
2019-01-21T12:06:24.670Z,1.57
2019-01-21T12:07:47.643Z,1.56
2019-01-21T12:09:12.037Z,1.55
2019-01-21T12:10:39.024Z,1.59
2019-01-21T12:11:51.046Z,1.62
2019-01-21T12:13:03.335Z,1.63
2019-01-21T12:14:24.627Z,1.64
2019-01-21T12:15:36.694Z,1.62
2019-01-21T12:17:04.167Z,1.64
2019-01-21T12:18:28.592Z,1.68
2019-01-21T12:19:50.031Z,1.72
2019-01-21T12:21:08.445Z,1.75
2019-01-21T12:22:43.544Z,1.74
2019-01-21T12:23:50.031Z,1.70
2019-01-21T12:24:56.538Z,1.65
2019-01-21T12:26:03.017Z,1.63
2019-01-21T12:27:12.215Z,1.63
2019-01-21T12:28:33.536Z,1.62
2019-01-21T12:29:51.794Z,1.62
2019-01-21T12:31:00.829Z,1.64
2019-01-21T12:32:35.361Z,1.66
2019-01-21T12:33:56.607Z,1.70
2019-01-21T12:35:03.127Z,1.79
2019-01-21T12:36:15.555Z,1.79
2019-01-21T12:37:24.842Z,1.83
2019-01-21T12:38:52.255Z,1.87
2019-01-21T12:39:58.743Z,1.94
2019-01-21T12:41:10.924Z,1.99
2019-01-21T12:42:17.393Z,1.95
2019-01-21T12:43:23.884Z,1.93
2019-01-21T12:44:46.855Z,1.91
2019-01-21T12:46:17.398Z,1.89
2019-01-21T12:47:29.508Z,1.79
2019-01-21T12:48:38.812Z,1.79
2019-01-21T12:50:01.422Z,1.76
2019-01-21T12:51:22.698Z,1.75
2019-01-21T12:52:34.739Z,1.79
2019-01-21T12:53:47.327Z,1.81
2019-01-21T12:55:05.410Z,1.81
2019-01-21T12:56:20.543Z,1.84
2019-01-21T12:57:44.940Z,1.89
2019-01-21T12:59:00.501Z,1.92
2019-01-21T13:00:18.558Z,1.95
2019-01-21T13:01:36.925Z,1.93
2019-01-21T13:02:58.327Z,1.81
2019-01-21T13:04:16.914Z,1.84
2019-01-21T13:05:35.166Z,1.92
2019-01-21T13:06:56.601Z,1.88
2019-01-21T13:08:12.336Z,1.84
2019-01-21T13:09:33.677Z,1.75
2019-01-21T13:11:01.215Z,1.73
2019-01-21T13:12:31.510Z,1.64
2019-01-21T13:13:47.003Z,1.67
2019-01-21T13:15:05.379Z,1.68
2019-01-21T13:16:20.392Z,1.72
2019-01-21T13:17:26.894Z,1.76
2019-01-21T13:18:35.939Z,1.82
2019-01-21T13:19:45.108Z,1.82
2019-01-21T13:20:54.158Z,1.84
2019-01-21T13:22:18.251Z,1.85
2019-01-21T13:23:30.308Z,1.82
2019-01-21T13:24:51.387Z,1.86
2019-01-21T13:26:30.321Z,1.86
2019-01-21T13:28:11.390Z,1.91
2019-01-21T13:29:20.644Z,1.94
2019-01-21T13:30:41.888Z,1.94
2019-01-21T13:31:54.215Z,1.96
2019-01-21T13:33:00.707Z,1.96
2019-01-21T13:34:23.571Z,1.92
2019-01-21T13:35:36.242Z,1.89
2019-01-21T13:36:48.583Z,1.91
2019-01-21T13:38:03.754Z,1.97
2019-01-21T13:39:15.732Z,1.98
2019-01-21T13:40:25.187Z,1.99
2019-01-21T13:41:31.663Z,2.01
2019-01-21T13:42:43.921Z,2.00
2019-01-21T13:43:52.945Z,1.95
2019-01-21T13:45:15.862Z,1.93
2019-01-21T13:46:22.362Z,1.93
2019-01-21T13:47:28.875Z,1.94
2019-01-21T13:48:47.159Z,1.95
2019-01-21T13:50:02.081Z,1.92
2019-01-21T13:51:24.634Z,1.91
2019-01-21T13:52:49.230Z,1.92
2019-01-21T13:54:01.361Z,1.94
2019-01-21T13:55:31.599Z,1.98
2019-01-21T13:56:40.660Z,1.96
2019-01-21T13:57:56.141Z,1.96
2019-01-21T13:59:35.380Z,1.98
2019-01-21T14:00:47.815Z,1.99
2019-01-21T14:02:02.606Z,2.02
2019-01-21T14:03:14.810Z,2.01
2019-01-21T14:04:54.200Z,1.99
2019-01-21T14:06:09.486Z,1.99
2019-01-21T14:07:37.827Z,2.01
2019-01-21T14:09:02.087Z,1.99
2019-01-21T14:10:26.404Z,2.00
2019-01-21T14:11:47.343Z,1.97
2019-01-21T14:12:59.688Z,1.97
2019-01-21T14:14:06.190Z,1.97
2019-01-21T14:15:33.525Z,1.94
2019-01-21T14:16:42.688Z,1.93
2019-01-21T14:17:49.200Z,1.94
2019-01-21T14:19:07.154Z,1.92
2019-01-21T14:20:19.531Z,1.93
2019-01-21T14:21:34.587Z,1.91
2019-01-21T14:22:43.732Z,1.91
2019-01-21T14:23:56.137Z,1.97
2019-01-21T14:25:02.636Z,2.00
2019-01-21T14:26:09.143Z,2.01
2019-01-21T14:27:39.433Z,2.00
2019-01-21T14:28:51.608Z,2.00
2019-01-21T14:30:10.131Z,1.98
2019-01-21T14:31:16.619Z,1.95
2019-01-21T14:32:42.026Z,1.95
2019-01-21T14:34:00.052Z,1.96
2019-01-21T14:35:30.301Z,1.99
2019-01-21T14:36:51.687Z,2.00
2019-01-21T14:38:10.062Z,2.01
2019-01-21T14:39:16.550Z,2.02
2019-01-21T14:40:54.199Z,2.06
2019-01-21T14:42:18.402Z,2.08
2019-01-21T14:43:30.580Z,2.16
2019-01-21T14:44:39.889Z,2.18
2019-01-21T14:45:52.230Z,2.14
2019-01-21T14:46:58.796Z,2.11
2019-01-21T14:48:33.623Z,2.11
2019-01-21T14:49:48.808Z,2.13
2019-01-21T14:51:14.635Z,2.10
2019-01-21T14:52:21.854Z,2.12
2019-01-21T14:53:47.329Z,2.18
2019-01-21T14:55:20.837Z,2.20
2019-01-21T14:56:41.982Z,2.15
2019-01-21T14:58:03.607Z,2.10
2019-01-21T14:59:15.678Z,2.07
2019-01-21T15:00:25.351Z,2.04
2019-01-21T15:01:43.633Z,2.03
2019-01-21T15:02:58.826Z,2.01
2019-01-21T15:04:25.992Z,1.97
2019-01-21T15:05:53.420Z,1.94
2019-01-21T15:07:02.470Z,1.96
2019-01-21T15:08:12.200Z,1.99
2019-01-21T15:09:18.810Z,2.00
2019-01-21T15:10:34.971Z,2.04
2019-01-21T15:11:50.009Z,2.10
2019-01-21T15:12:56.609Z,2.11
2019-01-21T15:14:12.037Z,2.13
2019-01-21T15:15:24.205Z,2.11
2019-01-21T15:16:39.638Z,2.14
2019-01-21T15:18:20.509Z,2.09
2019-01-21T15:19:27.476Z,2.08
2019-01-21T15:20:34.004Z,2.04
2019-01-21T15:21:58.334Z,2.04
2019-01-21T15:23:13.445Z,2.03
2019-01-21T15:24:37.597Z,2.00
2019-01-21T15:25:49.965Z,1.97
2019-01-21T15:27:11.435Z,1.96
2019-01-21T15:28:36.217Z,1.96
2019-01-21T15:29:45.662Z,1.94
2019-01-21T15:30:55.037Z,1.95
2019-01-21T15:32:20.775Z,2.00
2019-01-21T15:33:27.466Z,1.99
2019-01-21T15:34:36.532Z,2.00
2019-01-21T15:35:49.036Z,2.03
2019-01-21T15:37:14.775Z,2.02
2019-01-21T15:38:30.482Z,2.08
2019-01-21T15:40:02.265Z,2.11
2019-01-21T15:41:35.792Z,2.15
2019-01-21T15:42:54.225Z,2.11
2019-01-21T15:44:09.710Z,2.15
2019-01-21T15:45:25.140Z,2.09
2019-01-21T15:47:04.376Z,2.08
2019-01-21T15:48:19.575Z,2.08
2019-01-21T15:49:32.027Z,2.07
2019-01-21T15:50:50.281Z,2.03
2019-01-21T15:52:02.598Z,2.02
2019-01-21T15:53:11.804Z,2.00
2019-01-21T15:54:45.195Z,2.10
2019-01-21T15:55:54.609Z,2.10
2019-01-21T15:57:18.855Z,2.17
2019-01-21T15:58:50.920Z,2.16
2019-01-21T16:00:00.289Z,2.11
2019-01-21T16:01:18.266Z,2.12
2019-01-21T16:03:00.690Z,2.15
2019-01-21T16:04:09.949Z,2.13
2019-01-21T16:05:16.469Z,2.09
2019-01-21T16:06:37.783Z,2.05
2019-01-21T16:07:44.286Z,1.97
2019-01-21T16:09:06.721Z,1.94
2019-01-21T16:10:13.255Z,1.95
2019-01-21T16:11:35.917Z,1.97
2019-01-21T16:13:03.112Z,1.97
2019-01-21T16:14:06.995Z,1.98
2019-01-21T16:15:30.742Z,1.98
2019-01-21T16:16:48.972Z,1.96
2019-01-21T16:18:00.956Z,2.00
2019-01-21T16:19:08.046Z,2.03
2019-01-21T16:20:14.521Z,2.05
2019-01-21T16:21:35.666Z,2.05
2019-01-21T16:22:56.609Z,2.08
2019-01-21T16:24:14.714Z,2.15
2019-01-21T16:25:30.061Z,2.10
2019-01-21T16:26:36.539Z,2.03
2019-01-21T16:28:00.814Z,2.03
2019-01-21T16:29:12.704Z,2.01
2019-01-21T16:30:19.192Z,2.00
2019-01-21T16:31:25.672Z,1.97
2019-01-21T16:32:31.348Z,1.96
2019-01-21T16:33:54.150Z,1.96
2019-01-21T16:35:00.675Z,2.02
2019-01-21T16:36:12.646Z,2.04
2019-01-21T16:37:27.552Z,2.04